sensor_id;sensor_type;location;lat;lon;timestamp;P1;durP1;ratioP1;P2;durP2;ratioP2
42194;SDS011;27863;49.440;11.102;2022-08-19T00:02:31;20.35;;;18.42;;
42194;SDS011;27863;49.440;11.102;2022-08-19T00:05:32;22.20;;;20.13;;
42194;SDS011;27863;49.440;11.102;2022-08-19T00:08:32;20.02;;;18.42;;
42194;SDS011;27863;49.440;11.102;2022-08-19T00:11:34;22.00;;;17.65;;
42194;SDS011;27863;49.440;11.102;2022-08-19T00:14:37;18.92;;;17.52;;
42194;SDS011;27863;49.440;11.102;2022-08-19T00:17:39;17.88;;;16.58;;
42194;SDS011;27863;49.440;11.102;2022-08-19T00:20:40;17.00;;;15.70;;
42194;SDS011;27863;49.440;11.102;2022-08-19T00:23:41;18.02;;;16.73;;
42194;SDS011;27863;49.440;11.102;2022-08-19T00:26:43;18.35;;;17.00;;
42194;SDS011;27863;49.440;11.102;2022-08-19T00:29:45;16.67;;;15.45;;
42194;SDS011;27863;49.440;11.102;2022-08-19T00:32:45;17.55;;;16.25;;
42194;SDS011;27863;49.440;11.102;2022-08-19T00:35:46;17.30;;;15.88;;
42194;SDS011;27863;49.440;11.102;2022-08-19T00:38:47;17.60;;;16.38;;
42194;SDS011;27863;49.440;11.102;2022-08-19T00:41:48;18.05;;;16.75;;
42194;SDS011;27863;49.440;11.102;2022-08-19T00:44:49;19.80;;;18.20;;
42194;SDS011;27863;49.440;11.102;2022-08-19T00:47:50;18.25;;;16.88;;
42194;SDS011;27863;49.440;11.102;2022-08-19T00:50:51;18.55;;;17.33;;
42194;SDS011;27863;49.440;11.102;2022-08-19T00:53:54;19.35;;;17.95;;
42194;SDS011;27863;49.440;11.102;2022-08-19T00:56:55;18.45;;;16.85;;
42194;SDS011;27863;49.440;11.102;2022-08-19T00:59:57;17.40;;;16.10;;
42194;SDS011;27863;49.440;11.102;2022-08-19T01:02:59;17.95;;;16.65;;
42194;SDS011;27863;49.440;11.102;2022-08-19T01:06:00;17.48;;;16.02;;
42194;SDS011;27863;49.440;11.102;2022-08-19T01:09:00;16.45;;;15.25;;
42194;SDS011;27863;49.440;11.102;2022-08-19T01:12:01;16.73;;;15.43;;
42194;SDS011;27863;49.440;11.102;2022-08-19T01:15:03;18.67;;;17.38;;
42194;SDS011;27863;49.440;11.102;2022-08-19T01:18:06;17.95;;;16.02;;
42194;SDS011;27863;49.440;11.102;2022-08-19T01:21:37;18.75;;;17.35;;
42194;SDS011;27863;49.440;11.102;2022-08-19T01:25:07;18.33;;;17.02;;
42194;SDS011;27863;49.440;11.102;2022-08-19T01:28:07;18.48;;;17.17;;
42194;SDS011;27863;49.440;11.102;2022-08-19T01:31:10;18.77;;;17.27;;
42194;SDS011;27863;49.440;11.102;2022-08-19T01:34:13;18.27;;;16.73;;
42194;SDS011;27863;49.440;11.102;2022-08-19T01:37:14;18.20;;;16.90;;
42194;SDS011;27863;49.440;11.102;2022-08-19T01:40:15;20.73;;;19.15;;
42194;SDS011;27863;49.440;11.102;2022-08-19T01:43:17;17.98;;;16.58;;
42194;SDS011;27863;49.440;11.102;2022-08-19T01:46:19;18.90;;;17.02;;
42194;SDS011;27863;49.440;11.102;2022-08-19T01:49:21;16.98;;;15.68;;
42194;SDS011;27863;49.440;11.102;2022-08-19T01:52:23;17.95;;;16.75;;
42194;SDS011;27863;49.440;11.102;2022-08-19T01:55:23;17.75;;;16.48;;
42194;SDS011;27863;49.440;11.102;2022-08-19T01:58:26;19.52;;;17.98;;
42194;SDS011;27863;49.440;11.102;2022-08-19T02:01:31;19.63;;;18.10;;
42194;SDS011;27863;49.440;11.102;2022-08-19T02:04:32;19.50;;;17.85;;
42194;SDS011;27863;49.440;11.102;2022-08-19T02:07:34;18.42;;;16.95;;
42194;SDS011;27863;49.440;11.102;2022-08-19T02:10:38;19.17;;;17.80;;
42194;SDS011;27863;49.440;11.102;2022-08-19T02:13:40;18.83;;;17.45;;
42194;SDS011;27863;49.440;11.102;2022-08-19T02:16:41;19.40;;;17.90;;
42194;SDS011;27863;49.440;11.102;2022-08-19T02:19:41;20.08;;;18.65;;
42194;SDS011;27863;49.440;11.102;2022-08-19T02:22:42;17.85;;;16.60;;
42194;SDS011;27863;49.440;11.102;2022-08-19T02:25:45;18.88;;;17.38;;
42194;SDS011;27863;49.440;11.102;2022-08-19T02:28:46;19.15;;;17.75;;
42194;SDS011;27863;49.440;11.102;2022-08-19T02:31:48;18.83;;;17.40;;
42194;SDS011;27863;49.440;11.102;2022-08-19T02:34:49;19.35;;;17.73;;
42194;SDS011;27863;49.440;11.102;2022-08-19T02:37:49;19.52;;;18.02;;
42194;SDS011;27863;49.440;11.102;2022-08-19T02:41:14;19.27;;;17.77;;
42194;SDS011;27863;49.440;11.102;2022-08-19T02:44:16;20.55;;;19.10;;
42194;SDS011;27863;49.440;11.102;2022-08-19T02:47:17;20.65;;;18.85;;
42194;SDS011;27863;49.440;11.102;2022-08-19T02:50:18;19.58;;;17.88;;
42194;SDS011;27863;49.440;11.102;2022-08-19T02:53:19;20.15;;;18.65;;
42194;SDS011;27863;49.440;11.102;2022-08-19T02:56:23;19.50;;;17.98;;
42194;SDS011;27863;49.440;11.102;2022-08-19T02:59:29;22.05;;;20.30;;
42194;SDS011;27863;49.440;11.102;2022-08-19T03:02:30;21.52;;;19.55;;
42194;SDS011;27863;49.440;11.102;2022-08-19T03:05:31;21.27;;;19.63;;
42194;SDS011;27863;49.440;11.102;2022-08-19T03:08:31;20.08;;;18.58;;
42194;SDS011;27863;49.440;11.102;2022-08-19T03:11:32;21.83;;;20.17;;
42194;SDS011;27863;49.440;11.102;2022-08-19T03:14:33;21.58;;;20.08;;
42194;SDS011;27863;49.440;11.102;2022-08-19T03:17:34;22.70;;;21.00;;
42194;SDS011;27863;49.440;11.102;2022-08-19T03:20:39;22.20;;;20.40;;
42194;SDS011;27863;49.440;11.102;2022-08-19T03:23:44;23.27;;;21.27;;
42194;SDS011;27863;49.440;11.102;2022-08-19T03:26:46;19.67;;;18.08;;
42194;SDS011;27863;49.440;11.102;2022-08-19T03:29:57;21.13;;;19.63;;
42194;SDS011;27863;49.440;11.102;2022-08-19T03:32:58;22.27;;;20.10;;
42194;SDS011;27863;49.440;11.102;2022-08-19T03:36:15;21.30;;;19.67;;
42194;SDS011;27863;49.440;11.102;2022-08-19T03:39:20;20.00;;;18.45;;
42194;SDS011;27863;49.440;11.102;2022-08-19T03:42:21;18.63;;;17.13;;
42194;SDS011;27863;49.440;11.102;2022-08-19T03:45:22;20.90;;;19.15;;
42194;SDS011;27863;49.440;11.102;2022-08-19T03:48:23;21.08;;;19.48;;
42194;SDS011;27863;49.440;11.102;2022-08-19T03:51:25;20.83;;;19.17;;
42194;SDS011;27863;49.440;11.102;2022-08-19T03:54:30;21.02;;;19.50;;
42194;SDS011;27863;49.440;11.102;2022-08-19T03:57:31;21.58;;;20.08;;
42194;SDS011;27863;49.440;11.102;2022-08-19T04:00:33;22.40;;;20.48;;
42194;SDS011;27863;49.440;11.102;2022-08-19T04:03:35;22.80;;;21.05;;
42194;SDS011;27863;49.440;11.102;2022-08-19T04:06:38;24.50;;;22.42;;
42194;SDS011;27863;49.440;11.102;2022-08-19T04:09:38;22.02;;;20.30;;
42194;SDS011;27863;49.440;11.102;2022-08-19T04:12:39;25.42;;;23.38;;
42194;SDS011;27863;49.440;11.102;2022-08-19T04:15:40;23.52;;;21.30;;
42194;SDS011;27863;49.440;11.102;2022-08-19T04:18:42;23.02;;;21.23;;
42194;SDS011;27863;49.440;11.102;2022-08-19T04:21:43;21.83;;;19.95;;
42194;SDS011;27863;49.440;11.102;2022-08-19T04:24:45;23.83;;;21.90;;
42194;SDS011;27863;49.440;11.102;2022-08-19T04:27:45;22.20;;;20.40;;
42194;SDS011;27863;49.440;11.102;2022-08-19T04:30:48;23.45;;;21.13;;
42194;SDS011;27863;49.440;11.102;2022-08-19T04:33:49;23.15;;;21.13;;
42194;SDS011;27863;49.440;11.102;2022-08-19T04:36:51;24.60;;;22.35;;
42194;SDS011;27863;49.440;11.102;2022-08-19T04:39:52;23.52;;;21.30;;
42194;SDS011;27863;49.440;11.102;2022-08-19T04:43:13;24.35;;;21.92;;
42194;SDS011;27863;49.440;11.102;2022-08-19T04:46:14;25.30;;;23.10;;
42194;SDS011;27863;49.440;11.102;2022-08-19T04:49:15;25.00;;;22.48;;
42194;SDS011;27863;49.440;11.102;2022-08-19T04:52:17;23.88;;;21.85;;
42194;SDS011;27863;49.440;11.102;2022-08-19T04:55:17;23.15;;;21.00;;
42194;SDS011;27863;49.440;11.102;2022-08-19T04:58:20;23.38;;;21.58;;
42194;SDS011;27863;49.440;11.102;2022-08-19T05:01:22;21.55;;;19.73;;
42194;SDS011;27863;49.440;11.102;2022-08-19T05:04:28;22.98;;;21.05;;
42194;SDS011;27863;49.440;11.102;2022-08-19T05:07:30;24.15;;;21.85;;
42194;SDS011;27863;49.440;11.102;2022-08-19T05:10:31;22.30;;;20.42;;
42194;SDS011;27863;49.440;11.102;2022-08-19T05:13:32;23.73;;;21.10;;
42194;SDS011;27863;49.440;11.102;2022-08-19T05:16:32;19.75;;;18.15;;
42194;SDS011;27863;49.440;11.102;2022-08-19T05:19:33;20.20;;;18.70;;
42194;SDS011;27863;49.440;11.102;2022-08-19T05:22:52;20.83;;;19.23;;
42194;SDS011;27863;49.440;11.102;2022-08-19T05:25:53;20.50;;;18.90;;
42194;SDS011;27863;49.440;11.102;2022-08-19T05:28:54;21.02;;;19.42;;
42194;SDS011;27863;49.440;11.102;2022-08-19T05:31:55;19.35;;;17.85;;
42194;SDS011;27863;49.440;11.102;2022-08-19T05:34:55;22.20;;;20.27;;
42194;SDS011;27863;49.440;11.102;2022-08-19T05:37:58;29.90;;;19.80;;
42194;SDS011;27863;49.440;11.102;2022-08-19T05:40:59;21.95;;;17.27;;
42194;SDS011;27863;49.440;11.102;2022-08-19T05:44:03;18.92;;;17.33;;
42194;SDS011;27863;49.440;11.102;2022-08-19T05:47:06;18.40;;;16.77;;
42194;SDS011;27863;49.440;11.102;2022-08-19T05:50:08;18.17;;;16.83;;
42194;SDS011;27863;49.440;11.102;2022-08-19T05:53:10;17.65;;;16.35;;
42194;SDS011;27863;49.440;11.102;2022-08-19T05:56:11;19.70;;;18.05;;
42194;SDS011;27863;49.440;11.102;2022-08-19T05:59:15;19.02;;;17.33;;
42194;SDS011;27863;49.440;11.102;2022-08-19T06:02:16;19.23;;;17.75;;
42194;SDS011;27863;49.440;11.102;2022-08-19T06:05:17;19.42;;;17.98;;
42194;SDS011;27863;49.440;11.102;2022-08-19T06:08:18;20.75;;;18.83;;
42194;SDS011;27863;49.440;11.102;2022-08-19T06:14:21;18.63;;;17.02;;
42194;SDS011;27863;49.440;11.102;2022-08-19T06:17:23;16.88;;;15.52;;
42194;SDS011;27863;49.440;11.102;2022-08-19T06:20:25;17.02;;;15.73;;
42194;SDS011;27863;49.440;11.102;2022-08-19T06:23:26;16.52;;;15.32;;
42194;SDS011;27863;49.440;11.102;2022-08-19T06:26:26;15.80;;;14.50;;
42194;SDS011;27863;49.440;11.102;2022-08-19T06:29:27;15.90;;;14.80;;
42194;SDS011;27863;49.440;11.102;2022-08-19T06:32:29;16.67;;;15.02;;
42194;SDS011;27863;49.440;11.102;2022-08-19T06:35:30;13.68;;;12.68;;
42194;SDS011;27863;49.440;11.102;2022-08-19T06:38:31;14.73;;;13.73;;
42194;SDS011;27863;49.440;11.102;2022-08-19T06:41:37;14.63;;;13.63;;
42194;SDS011;27863;49.440;11.102;2022-08-19T06:44:43;14.85;;;13.65;;
42194;SDS011;27863;49.440;11.102;2022-08-19T06:47:49;15.10;;;13.85;;
42194;SDS011;27863;49.440;11.102;2022-08-19T06:50:49;16.83;;;15.50;;
42194;SDS011;27863;49.440;11.102;2022-08-19T06:53:52;15.82;;;14.45;;
42194;SDS011;27863;49.440;11.102;2022-08-19T06:56:53;14.05;;;12.88;;
42194;SDS011;27863;49.440;11.102;2022-08-19T06:59:54;15.80;;;14.70;;
42194;SDS011;27863;49.440;11.102;2022-08-19T07:02:56;14.52;;;13.35;;
42194;SDS011;27863;49.440;11.102;2022-08-19T07:05:57;14.45;;;12.75;;
42194;SDS011;27863;49.440;11.102;2022-08-19T07:08:59;14.35;;;13.05;;
42194;SDS011;27863;49.440;11.102;2022-08-19T07:11:59;13.70;;;12.70;;
42194;SDS011;27863;49.440;11.102;2022-08-19T07:15:03;14.00;;;12.88;;
42194;SDS011;27863;49.440;11.102;2022-08-19T07:18:04;13.98;;;12.98;;
42194;SDS011;27863;49.440;11.102;2022-08-19T07:21:09;14.07;;;12.75;;
42194;SDS011;27863;49.440;11.102;2022-08-19T07:24:11;12.88;;;11.90;;
42194;SDS011;27863;49.440;11.102;2022-08-19T07:27:12;12.07;;;11.27;;
42194;SDS011;27863;49.440;11.102;2022-08-19T07:30:14;12.18;;;11.13;;
42194;SDS011;27863;49.440;11.102;2022-08-19T07:33:15;12.45;;;11.45;;
42194;SDS011;27863;49.440;11.102;2022-08-19T07:36:19;12.35;;;11.45;;
42194;SDS011;27863;49.440;11.102;2022-08-19T07:39:23;13.40;;;12.30;;
42194;SDS011;27863;49.440;11.102;2022-08-19T07:42:26;13.88;;;10.73;;
42194;SDS011;27863;49.440;11.102;2022-08-19T07:45:29;12.30;;;11.30;;
42194;SDS011;27863;49.440;11.102;2022-08-19T07:48:31;12.75;;;11.75;;
42194;SDS011;27863;49.440;11.102;2022-08-19T07:51:32;11.35;;;10.48;;
42194;SDS011;27863;49.440;11.102;2022-08-19T07:54:35;12.10;;;11.20;;
42194;SDS011;27863;49.440;11.102;2022-08-19T07:57:36;12.45;;;11.55;;
42194;SDS011;27863;49.440;11.102;2022-08-19T08:00:38;12.02;;;11.10;;
42194;SDS011;27863;49.440;11.102;2022-08-19T08:03:39;14.15;;;13.05;;
42194;SDS011;27863;49.440;11.102;2022-08-19T08:06:58;12.88;;;11.82;;
42194;SDS011;27863;49.440;11.102;2022-08-19T08:10:17;13.80;;;12.80;;
42194;SDS011;27863;49.440;11.102;2022-08-19T08:13:18;13.15;;;12.15;;
42194;SDS011;27863;49.440;11.102;2022-08-19T08:16:18;13.05;;;12.10;;
42194;SDS011;27863;49.440;11.102;2022-08-19T08:19:19;13.00;;;12.10;;
42194;SDS011;27863;49.440;11.102;2022-08-19T08:22:21;12.35;;;11.45;;
42194;SDS011;27863;49.440;11.102;2022-08-19T08:25:41;14.13;;;12.88;;
42194;SDS011;27863;49.440;11.102;2022-08-19T08:28:42;13.05;;;12.02;;
42194;SDS011;27863;49.440;11.102;2022-08-19T08:31:43;14.05;;;13.05;;
42194;SDS011;27863;49.440;11.102;2022-08-19T08:34:45;12.57;;;11.57;;
42194;SDS011;27863;49.440;11.102;2022-08-19T08:37:46;13.43;;;12.32;;
42194;SDS011;27863;49.440;11.102;2022-08-19T08:40:57;12.30;;;11.40;;
42194;SDS011;27863;49.440;11.102;2022-08-19T08:44:06;14.40;;;13.20;;
42194;SDS011;27863;49.440;11.102;2022-08-19T08:47:15;14.18;;;13.15;;
42194;SDS011;27863;49.440;11.102;2022-08-19T08:50:18;13.75;;;12.73;;
42194;SDS011;27863;49.440;11.102;2022-08-19T08:53:23;13.52;;;12.40;;
42194;SDS011;27863;49.440;11.102;2022-08-19T08:56:24;15.75;;;13.80;;
42194;SDS011;27863;49.440;11.102;2022-08-19T08:59:26;13.48;;;12.48;;
42194;SDS011;27863;49.440;11.102;2022-08-19T09:02:32;14.43;;;13.43;;
42194;SDS011;27863;49.440;11.102;2022-08-19T09:15:47;20.38;;;18.67;;
42194;SDS011;27863;49.440;11.102;2022-08-19T09:18:52;21.15;;;19.25;;
42194;SDS011;27863;49.440;11.102;2022-08-19T09:21:54;19.80;;;17.98;;
42194;SDS011;27863;49.440;11.102;2022-08-19T09:24:54;23.52;;;21.38;;
42194;SDS011;27863;49.440;11.102;2022-08-19T09:27:55;17.65;;;16.15;;
42194;SDS011;27863;49.440;11.102;2022-08-19T09:30:57;22.58;;;20.58;;
42194;SDS011;27863;49.440;11.102;2022-08-19T09:33:58;19.30;;;17.60;;
42194;SDS011;27863;49.440;11.102;2022-08-19T09:36:59;20.30;;;18.70;;
42194;SDS011;27863;49.440;11.102;2022-08-19T09:40:00;21.10;;;19.00;;
42194;SDS011;27863;49.440;11.102;2022-08-19T09:43:01;18.70;;;17.23;;
42194;SDS011;27863;49.440;11.102;2022-08-19T09:46:04;18.05;;;16.65;;
42194;SDS011;27863;49.440;11.102;2022-08-19T09:49:09;19.20;;;17.60;;
42194;SDS011;27863;49.440;11.102;2022-08-19T09:52:10;18.00;;;16.50;;
42194;SDS011;27863;49.440;11.102;2022-08-19T09:55:11;19.27;;;17.58;;
42194;SDS011;27863;49.440;11.102;2022-08-19T09:58:12;19.08;;;17.58;;
42194;SDS011;27863;49.440;11.102;2022-08-19T10:01:16;19.10;;;17.63;;
42194;SDS011;27863;49.440;11.102;2022-08-19T10:04:25;17.55;;;16.15;;
42194;SDS011;27863;49.440;11.102;2022-08-19T10:07:48;18.80;;;17.27;;
42194;SDS011;27863;49.440;11.102;2022-08-19T10:10:49;17.92;;;16.52;;
42194;SDS011;27863;49.440;11.102;2022-08-19T10:13:50;19.48;;;17.52;;
42194;SDS011;27863;49.440;11.102;2022-08-19T10:16:51;19.92;;;18.13;;
42194;SDS011;27863;49.440;11.102;2022-08-19T10:19:52;19.70;;;18.10;;
42194;SDS011;27863;49.440;11.102;2022-08-19T10:22:52;19.80;;;17.92;;
42194;SDS011;27863;49.440;11.102;2022-08-19T10:25:53;19.35;;;17.75;;
42194;SDS011;27863;49.440;11.102;2022-08-19T10:28:54;19.92;;;17.42;;
42194;SDS011;27863;49.440;11.102;2022-08-19T10:31:54;19.40;;;17.33;;
42194;SDS011;27863;49.440;11.102;2022-08-19T10:34:56;17.45;;;16.05;;
42194;SDS011;27863;49.440;11.102;2022-08-19T10:37:57;18.13;;;16.30;;
42194;SDS011;27863;49.440;11.102;2022-08-19T10:41:12;19.88;;;18.00;;
42194;SDS011;27863;49.440;11.102;2022-08-19T10:44:17;17.17;;;15.70;;
42194;SDS011;27863;49.440;11.102;2022-08-19T10:47:19;18.33;;;16.73;;
42194;SDS011;27863;49.440;11.102;2022-08-19T10:50:20;18.48;;;17.02;;
42194;SDS011;27863;49.440;11.102;2022-08-19T10:53:40;17.20;;;15.80;;
42194;SDS011;27863;49.440;11.102;2022-08-19T10:56:41;17.75;;;16.42;;
42194;SDS011;27863;49.440;11.102;2022-08-19T10:59:51;18.58;;;16.98;;
42194;SDS011;27863;49.440;11.102;2022-08-19T11:02:51;17.70;;;16.25;;
42194;SDS011;27863;49.440;11.102;2022-08-19T11:05:59;19.92;;;18.15;;
42194;SDS011;27863;49.440;11.102;2022-08-19T11:09:00;18.50;;;16.85;;
42194;SDS011;27863;49.440;11.102;2022-08-19T11:12:01;19.17;;;17.67;;
42194;SDS011;27863;49.440;11.102;2022-08-19T11:15:02;19.83;;;17.98;;
42194;SDS011;27863;49.440;11.102;2022-08-19T11:18:02;18.08;;;16.77;;
42194;SDS011;27863;49.440;11.102;2022-08-19T11:21:11;20.73;;;18.67;;
42194;SDS011;27863;49.440;11.102;2022-08-19T11:24:13;20.30;;;18.60;;
42194;SDS011;27863;49.440;11.102;2022-08-19T11:27:16;18.08;;;16.60;;
42194;SDS011;27863;49.440;11.102;2022-08-19T11:30:17;19.17;;;17.42;;
42194;SDS011;27863;49.440;11.102;2022-08-19T11:33:18;17.92;;;16.55;;
42194;SDS011;27863;49.440;11.102;2022-08-19T11:36:20;18.25;;;16.58;;
42194;SDS011;27863;49.440;11.102;2022-08-19T11:39:21;19.48;;;17.98;;
42194;SDS011;27863;49.440;11.102;2022-08-19T11:42:22;20.02;;;18.30;;
42194;SDS011;27863;49.440;11.102;2022-08-19T11:45:41;20.08;;;18.45;;
42194;SDS011;27863;49.440;11.102;2022-08-19T11:48:43;19.50;;;17.73;;
42194;SDS011;27863;49.440;11.102;2022-08-19T11:51:44;19.45;;;17.38;;
42194;SDS011;27863;49.440;11.102;2022-08-19T11:54:45;18.90;;;16.45;;
42194;SDS011;27863;49.440;11.102;2022-08-19T11:57:45;19.75;;;18.17;;
42194;SDS011;27863;49.440;11.102;2022-08-19T12:00:46;19.45;;;17.95;;
42194;SDS011;27863;49.440;11.102;2022-08-19T12:03:48;18.40;;;17.00;;
42194;SDS011;27863;49.440;11.102;2022-08-19T12:06:52;18.63;;;17.30;;
42194;SDS011;27863;49.440;11.102;2022-08-19T12:09:53;16.48;;;15.05;;
42194;SDS011;27863;49.440;11.102;2022-08-19T12:12:53;20.10;;;18.50;;
42194;SDS011;27863;49.440;11.102;2022-08-19T12:15:54;18.02;;;16.52;;
42194;SDS011;27863;49.440;11.102;2022-08-19T12:18:55;19.50;;;17.50;;
42194;SDS011;27863;49.440;11.102;2022-08-19T12:21:58;17.55;;;15.95;;
42194;SDS011;27863;49.440;11.102;2022-08-19T12:25:01;18.30;;;16.83;;
42194;SDS011;27863;49.440;11.102;2022-08-19T12:28:02;18.05;;;16.63;;
42194;SDS011;27863;49.440;11.102;2022-08-19T12:31:03;20.98;;;19.17;;
42194;SDS011;27863;49.440;11.102;2022-08-19T12:34:04;19.42;;;17.80;;
42194;SDS011;27863;49.440;11.102;2022-08-19T12:37:05;19.13;;;17.63;;
42194;SDS011;27863;49.440;11.102;2022-08-19T12:40:06;18.15;;;16.75;;
42194;SDS011;27863;49.440;11.102;2022-08-19T12:43:08;15.90;;;14.82;;
42194;SDS011;27863;49.440;11.102;2022-08-19T12:46:09;19.67;;;18.20;;
42194;SDS011;27863;49.440;11.102;2022-08-19T12:49:10;17.73;;;16.23;;
42194;SDS011;27863;49.440;11.102;2022-08-19T12:52:10;17.50;;;16.20;;
42194;SDS011;27863;49.440;11.102;2022-08-19T12:55:15;17.70;;;16.20;;
42194;SDS011;27863;49.440;11.102;2022-08-19T12:58:16;16.25;;;15.07;;
42194;SDS011;27863;49.440;11.102;2022-08-19T13:01:17;16.45;;;15.05;;
42194;SDS011;27863;49.440;11.102;2022-08-19T13:04:18;17.27;;;15.82;;
42194;SDS011;27863;49.440;11.102;2022-08-19T13:07:20;17.83;;;16.48;;
42194;SDS011;27863;49.440;11.102;2022-08-19T13:10:22;16.85;;;15.52;;
42194;SDS011;27863;49.440;11.102;2022-08-19T13:13:25;19.00;;;17.40;;
42194;SDS011;27863;49.440;11.102;2022-08-19T13:16:26;17.08;;;15.75;;
42194;SDS011;27863;49.440;11.102;2022-08-19T13:19:27;20.73;;;19.05;;
42194;SDS011;27863;49.440;11.102;2022-08-19T13:22:28;20.10;;;18.60;;
42194;SDS011;27863;49.440;11.102;2022-08-19T13:25:29;21.17;;;19.40;;
42194;SDS011;27863;49.440;11.102;2022-08-19T13:28:30;20.50;;;19.02;;
42194;SDS011;27863;49.440;11.102;2022-08-19T13:31:51;22.58;;;20.27;;
42194;SDS011;27863;49.440;11.102;2022-08-19T13:35:10;19.35;;;17.75;;
42194;SDS011;27863;49.440;11.102;2022-08-19T13:38:12;21.13;;;19.48;;
42194;SDS011;27863;49.440;11.102;2022-08-19T13:41:14;20.55;;;18.92;;
42194;SDS011;27863;49.440;11.102;2022-08-19T13:44:15;21.25;;;19.38;;
42194;SDS011;27863;49.440;11.102;2022-08-19T13:47:18;20.02;;;18.52;;
42194;SDS011;27863;49.440;11.102;2022-08-19T13:50:22;18.88;;;17.48;;
42194;SDS011;27863;49.440;11.102;2022-08-19T13:53:25;17.52;;;16.33;;
42194;SDS011;27863;49.440;11.102;2022-08-19T13:56:26;21.73;;;19.73;;
42194;SDS011;27863;49.440;11.102;2022-08-19T13:59:26;18.77;;;17.38;;
42194;SDS011;27863;49.440;11.102;2022-08-19T14:02:27;17.33;;;16.02;;
42194;SDS011;27863;49.440;11.102;2022-08-19T14:05:30;16.85;;;15.55;;
42194;SDS011;27863;49.440;11.102;2022-08-19T14:08:30;14.80;;;13.60;;
42194;SDS011;27863;49.440;11.102;2022-08-19T14:11:32;16.13;;;14.90;;
42194;SDS011;27863;49.440;11.102;2022-08-19T14:14:35;16.42;;;15.18;;
42194;SDS011;27863;49.440;11.102;2022-08-19T14:17:38;15.65;;;14.45;;
42194;SDS011;27863;49.440;11.102;2022-08-19T14:20:39;15.70;;;14.50;;
42194;SDS011;27863;49.440;11.102;2022-08-19T14:23:39;16.17;;;14.90;;
42194;SDS011;27863;49.440;11.102;2022-08-19T14:26:40;15.60;;;14.18;;
42194;SDS011;27863;49.440;11.102;2022-08-19T14:29:41;14.40;;;13.30;;
42194;SDS011;27863;49.440;11.102;2022-08-19T14:32:42;12.02;;;11.13;;
42194;SDS011;27863;49.440;11.102;2022-08-19T14:35:46;11.20;;;10.30;;
42194;SDS011;27863;49.440;11.102;2022-08-19T14:38:47;12.73;;;11.43;;
42194;SDS011;27863;49.440;11.102;2022-08-19T14:41:55;9.65;;;8.63;;
42194;SDS011;27863;49.440;11.102;2022-08-19T14:44:59;10.50;;;9.57;;
42194;SDS011;27863;49.440;11.102;2022-08-19T14:48:00;10.90;;;9.70;;
42194;SDS011;27863;49.440;11.102;2022-08-19T14:51:01;10.98;;;10.18;;
42194;SDS011;27863;49.440;11.102;2022-08-19T14:54:02;11.50;;;10.60;;
42194;SDS011;27863;49.440;11.102;2022-08-19T14:57:02;15.73;;;10.35;;
42194;SDS011;27863;49.440;11.102;2022-08-19T15:00:04;15.40;;;13.75;;
42194;SDS011;27863;49.440;11.102;2022-08-19T15:03:06;16.52;;;14.27;;
42194;SDS011;27863;49.440;11.102;2022-08-19T15:06:07;14.18;;;13.07;;
42194;SDS011;27863;49.440;11.102;2022-08-19T15:09:08;15.60;;;14.40;;
42194;SDS011;27863;49.440;11.102;2022-08-19T15:12:09;16.42;;;14.93;;
42194;SDS011;27863;49.440;11.102;2022-08-19T15:15:11;17.45;;;16.05;;
42194;SDS011;27863;49.440;11.102;2022-08-19T15:18:12;18.92;;;17.23;;
42194;SDS011;27863;49.440;11.102;2022-08-19T15:21:14;20.20;;;18.40;;
42194;SDS011;27863;49.440;11.102;2022-08-19T15:24:18;18.73;;;16.92;;
42194;SDS011;27863;49.440;11.102;2022-08-19T15:27:19;19.85;;;18.33;;
42194;SDS011;27863;49.440;11.102;2022-08-19T15:30:22;19.42;;;17.92;;
42194;SDS011;27863;49.440;11.102;2022-08-19T15:33:24;19.45;;;17.92;;
42194;SDS011;27863;49.440;11.102;2022-08-19T15:36:28;22.08;;;20.08;;
42194;SDS011;27863;49.440;11.102;2022-08-19T15:39:29;18.08;;;16.25;;
42194;SDS011;27863;49.440;11.102;2022-08-19T15:42:30;19.02;;;17.48;;
42194;SDS011;27863;49.440;11.102;2022-08-19T15:45:31;20.52;;;18.80;;
42194;SDS011;27863;49.440;11.102;2022-08-19T15:48:32;23.45;;;21.20;;
42194;SDS011;27863;49.440;11.102;2022-08-19T15:51:33;23.75;;;21.52;;
42194;SDS011;27863;49.440;11.102;2022-08-19T15:54:34;22.60;;;20.60;;
42194;SDS011;27863;49.440;11.102;2022-08-19T15:57:35;16.77;;;15.40;;
42194;SDS011;27863;49.440;11.102;2022-08-19T16:00:54;19.05;;;17.13;;
42194;SDS011;27863;49.440;11.102;2022-08-19T16:04:17;15.98;;;14.77;;
42194;SDS011;27863;49.440;11.102;2022-08-19T16:07:36;15.27;;;14.00;;
42194;SDS011;27863;49.440;11.102;2022-08-19T16:10:37;21.40;;;19.55;;
42194;SDS011;27863;49.440;11.102;2022-08-19T16:13:38;15.32;;;14.07;;
42194;SDS011;27863;49.440;11.102;2022-08-19T16:16:39;17.02;;;15.48;;
42194;SDS011;27863;49.440;11.102;2022-08-19T16:19:40;14.63;;;13.27;;
42194;SDS011;27863;49.440;11.102;2022-08-19T16:22:40;14.85;;;13.57;;
42194;SDS011;27863;49.440;11.102;2022-08-19T16:25:41;14.63;;;13.43;;
42194;SDS011;27863;49.440;11.102;2022-08-19T16:28:42;14.27;;;13.13;;
42194;SDS011;27863;49.440;11.102;2022-08-19T16:31:43;15.27;;;13.90;;
42194;SDS011;27863;49.440;11.102;2022-08-19T16:34:48;14.80;;;13.70;;
42194;SDS011;27863;49.440;11.102;2022-08-19T16:37:48;13.77;;;12.48;;
42194;SDS011;27863;49.440;11.102;2022-08-19T16:40:49;13.38;;;12.27;;
42194;SDS011;27863;49.440;11.102;2022-08-19T16:43:53;13.57;;;12.35;;
42194;SDS011;27863;49.440;11.102;2022-08-19T16:46:54;11.32;;;10.25;;
42194;SDS011;27863;49.440;11.102;2022-08-19T16:49:55;11.43;;;10.00;;
42194;SDS011;27863;49.440;11.102;2022-08-19T16:52:55;12.60;;;11.70;;
42194;SDS011;27863;49.440;11.102;2022-08-19T16:55:58;12.57;;;11.57;;
42194;SDS011;27863;49.440;11.102;2022-08-19T16:58:58;13.85;;;12.43;;
42194;SDS011;27863;49.440;11.102;2022-08-19T17:01:59;12.00;;;11.00;;
42194;SDS011;27863;49.440;11.102;2022-08-19T17:05:00;11.57;;;10.57;;
42194;SDS011;27863;49.440;11.102;2022-08-19T17:08:01;12.10;;;11.20;;
42194;SDS011;27863;49.440;11.102;2022-08-19T17:11:01;13.07;;;12.07;;
42194;SDS011;27863;49.440;11.102;2022-08-19T17:14:03;14.23;;;13.05;;
42194;SDS011;27863;49.440;11.102;2022-08-19T17:17:04;14.95;;;13.73;;
42194;SDS011;27863;49.440;11.102;2022-08-19T17:20:05;15.07;;;13.85;;
42194;SDS011;27863;49.440;11.102;2022-08-19T17:23:07;42.70;;;19.92;;
42194;SDS011;27863;49.440;11.102;2022-08-19T17:26:10;10.45;;;9.45;;
42194;SDS011;27863;49.440;11.102;2022-08-19T17:29:12;9.82;;;8.95;;
42194;SDS011;27863;49.440;11.102;2022-08-19T17:32:13;8.35;;;7.75;;
42194;SDS011;27863;49.440;11.102;2022-08-19T17:35:14;7.50;;;7.00;;
42194;SDS011;27863;49.440;11.102;2022-08-19T17:38:20;6.93;;;6.43;;
42194;SDS011;27863;49.440;11.102;2022-08-19T17:41:23;8.07;;;7.28;;
42194;SDS011;27863;49.440;11.102;2022-08-19T17:44:24;8.00;;;7.40;;
42194;SDS011;27863;49.440;11.102;2022-08-19T17:47:25;8.65;;;7.85;;